sensor_id;sensor_type;location;lat;lon;timestamp;pressure;altitude;pressure_sealevel;temperature;humidity
34213;BME280;20477;51.390;8.102;2023-08-30T00:00:05;45751.19;;;-145.84;100.00
34213;BME280;20477;51.390;8.102;2023-08-30T00:02:34;45784.56;;;-145.84;100.00
34213;BME280;20477;51.390;8.102;2023-08-30T00:05:05;45839.56;;;-145.84;100.00
34213;BME280;20477;51.390;8.102;2023-08-30T00:07:34;45979.00;;;-145.84;100.00
34213;BME280;20477;51.390;8.102;2023-08-30T00:10:03;45935.81;;;-145.84;100.00
34213;BME280;20477;51.390;8.102;2023-08-30T00:12:31;45863.13;;;-145.84;100.00
34213;BME280;20477;51.390;8.102;2023-08-30T00:15:00;45982.94;;;-145.84;100.00
34213;BME280;20477;51.390;8.102;2023-08-30T00:17:28;45855.28;;;-145.84;100.00
34213;BME280;20477;51.390;8.102;2023-08-30T00:19:57;45894.56;;;-145.84;100.00
34213;BME280;20477;51.390;8.102;2023-08-30T00:22:26;45941.69;;;-145.84;100.00
34213;BME280;20477;51.390;8.102;2023-08-30T00:24:55;45998.66;;;-145.84;100.00
34213;BME280;20477;51.390;8.102;2023-08-30T00:27:24;46045.78;;;-145.84;100.00
34213;BME280;20477;51.390;8.102;2023-08-30T00:29:52;46020.25;;;-145.84;100.00
34213;BME280;20477;51.390;8.102;2023-08-30T00:32:21;46000.63;;;-145.84;100.00
34213;BME280;20477;51.390;8.102;2023-08-30T00:34:50;46081.16;;;-145.84;100.00
34213;BME280;20477;51.390;8.102;2023-08-30T00:37:18;46075.25;;;-145.84;100.00
34213;BME280;20477;51.390;8.102;2023-08-30T00:39:48;46098.81;;;-145.84;100.00
34213;BME280;20477;51.390;8.102;2023-08-30T00:42:17;45949.56;;;-145.84;100.00
34213;BME280;20477;51.390;8.102;2023-08-30T00:44:45;46051.69;;;-145.84;100.00
34213;BME280;20477;51.390;8.102;2023-08-30T00:47:13;45945.63;;;-145.84;100.00
34213;BME280;20477;51.390;8.102;2023-08-30T00:49:42;45855.28;;;-145.84;100.00
34213;BME280;20477;51.390;8.102;2023-08-30T00:52:11;46090.97;;;-145.84;100.00
34213;BME280;20477;51.390;8.102;2023-08-30T00:54:39;45969.19;;;-145.84;100.00
34213;BME280;20477;51.390;8.102;2023-08-30T00:57:09;46014.38;;;-145.84;100.00
34213;BME280;20477;51.390;8.102;2023-08-30T00:59:38;45937.75;;;-145.84;100.00
34213;BME280;20477;51.390;8.102;2023-08-30T01:02:07;46240.25;;;-145.84;100.00
34213;BME280;20477;51.390;8.102;2023-08-30T01:04:35;46222.56;;;-145.84;100.00
34213;BME280;20477;51.390;8.102;2023-08-30T01:07:04;46199.00;;;-145.84;100.00
34213;BME280;20477;51.390;8.102;2023-08-30T01:09:35;46065.44;;;-145.84;100.00
34213;BME280;20477;51.390;8.102;2023-08-30T01:12:10;46136.13;;;-145.84;100.00
34213;BME280;20477;51.390;8.102;2023-08-30T01:14:45;46216.66;;;-145.84;100.00
34213;BME280;20477;51.390;8.102;2023-08-30T01:17:17;46163.63;;;-145.84;100.00
34213;BME280;20477;51.390;8.102;2023-08-30T01:19:51;46151.84;;;-145.84;100.00
34213;BME280;20477;51.390;8.102;2023-08-30T01:22:37;45990.78;;;-145.84;100.00
34213;BME280;20477;51.390;8.102;2023-08-30T01:25:19;46055.59;;;-145.84;100.00
34213;BME280;20477;51.390;8.102;2023-08-30T01:27:52;46061.50;;;-145.84;100.00
34213;BME280;20477;51.390;8.102;2023-08-30T01:30:22;46081.16;;;-145.84;100.00
34213;BME280;20477;51.390;8.102;2023-08-30T01:32:54;46085.06;;;-145.84;100.00
34213;BME280;20477;51.390;8.102;2023-08-30T01:35:24;46145.97;;;-145.84;100.00
34213;BME280;20477;51.390;8.102;2023-08-30T01:37:58;46171.50;;;-145.84;100.00
34213;BME280;20477;51.390;8.102;2023-08-30T01:40:30;46228.47;;;-145.84;100.00
34213;BME280;20477;51.390;8.102;2023-08-30T01:43:01;46255.97;;;-145.84;100.00
34213;BME280;20477;51.390;8.102;2023-08-30T01:45:33;46289.34;;;-145.84;100.00
34213;BME280;20477;51.390;8.102;2023-08-30T01:48:04;46065.44;;;-145.84;100.00
34213;BME280;20477;51.390;8.102;2023-08-30T01:50:34;45988.84;;;-145.84;100.00
34213;BME280;20477;51.390;8.102;2023-08-30T01:53:03;46065.44;;;-145.84;100.00
34213;BME280;20477;51.390;8.102;2023-08-30T01:55:32;46098.81;;;-145.84;100.00
34213;BME280;20477;51.390;8.102;2023-08-30T01:58:04;46065.44;;;-145.84;100.00
34213;BME280;20477;51.390;8.102;2023-08-30T02:00:32;45994.72;;;-145.84;100.00
34213;BME280;20477;51.390;8.102;2023-08-30T02:03:08;46124.34;;;-145.84;100.00
34213;BME280;20477;51.390;8.102;2023-08-30T02:05:44;45982.94;;;-145.84;100.00
34213;BME280;20477;51.390;8.102;2023-08-30T02:08:17;46173.47;;;-145.84;100.00
34213;BME280;20477;51.390;8.102;2023-08-30T02:10:52;45784.56;;;-145.84;100.00
34213;BME280;20477;51.390;8.102;2023-08-30T02:13:26;46130.25;;;-145.84;100.00
34213;BME280;20477;51.390;8.102;2023-08-30T02:15:56;46100.78;;;-145.84;100.00
34213;BME280;20477;51.390;8.102;2023-08-30T02:18:28;46110.59;;;-145.84;100.00
34213;BME280;20477;51.390;8.102;2023-08-30T02:20:59;46020.25;;;-145.84;100.00
34213;BME280;20477;51.390;8.102;2023-08-30T02:23:27;46108.66;;;-145.84;100.00
34213;BME280;20477;51.390;8.102;2023-08-30T02:25:56;46071.31;;;-145.84;100.00
34213;BME280;20477;51.390;8.102;2023-08-30T02:28:26;45990.78;;;-145.84;100.00
34213;BME280;20477;51.390;8.102;2023-08-30T02:30:54;45918.13;;;-145.84;100.00
34213;BME280;20477;51.390;8.102;2023-08-30T02:33:31;46000.63;;;-145.84;100.00
34213;BME280;20477;51.390;8.102;2023-08-30T02:36:06;46035.97;;;-145.84;100.00
34213;BME280;20477;51.390;8.102;2023-08-30T02:38:35;45851.34;;;-145.84;100.00
34213;BME280;20477;51.390;8.102;2023-08-30T02:41:03;46026.16;;;-145.84;100.00
34213;BME280;20477;51.390;8.102;2023-08-30T02:43:33;45980.97;;;-145.84;100.00
34213;BME280;20477;51.390;8.102;2023-08-30T02:46:01;45810.09;;;-145.84;100.00
34213;BME280;20477;51.390;8.102;2023-08-30T02:48:31;45882.78;;;-145.84;100.00
34213;BME280;20477;51.390;8.102;2023-08-30T02:51:00;45876.88;;;-145.84;100.00
34213;BME280;20477;51.390;8.102;2023-08-30T02:53:29;45863.13;;;-145.84;100.00
34213;BME280;20477;51.390;8.102;2023-08-30T02:55:57;45912.22;;;-145.84;100.00
34213;BME280;20477;51.390;8.102;2023-08-30T02:58:25;45733.50;;;-145.84;100.00
34213;BME280;20477;51.390;8.102;2023-08-30T03:00:56;45929.91;;;-145.84;100.00
34213;BME280;20477;51.390;8.102;2023-08-30T03:03:24;45841.53;;;-145.84;100.00
34213;BME280;20477;51.390;8.102;2023-08-30T03:05:52;45922.06;;;-145.84;100.00
34213;BME280;20477;51.390;8.102;2023-08-30T03:08:21;45804.22;;;-145.84;100.00
34213;BME280;20477;51.390;8.102;2023-08-30T03:10:49;45784.56;;;-145.84;100.00
34213;BME280;20477;51.390;8.102;2023-08-30T03:13:18;45933.84;;;-145.84;100.00
34213;BME280;20477;51.390;8.102;2023-08-30T03:15:46;46045.78;;;-145.84;100.00
34213;BME280;20477;51.390;8.102;2023-08-30T03:18:16;45933.84;;;-145.84;100.00
34213;BME280;20477;51.390;8.102;2023-08-30T03:20:45;45745.28;;;-145.84;100.00
34213;BME280;20477;51.390;8.102;2023-08-30T03:23:13;46039.91;;;-145.84;100.00
34213;BME280;20477;51.390;8.102;2023-08-30T03:25:41;45953.47;;;-145.84;100.00
34213;BME280;20477;51.390;8.102;2023-08-30T03:28:10;45896.53;;;-145.84;100.00
34213;BME280;20477;51.390;8.102;2023-08-30T03:30:38;45935.81;;;-145.84;100.00
34213;BME280;20477;51.390;8.102;2023-08-30T03:33:07;45849.38;;;-145.84;100.00
34213;BME280;20477;51.390;8.102;2023-08-30T03:35:37;45812.06;;;-145.84;100.00
34213;BME280;20477;51.390;8.102;2023-08-30T03:38:05;45961.34;;;-145.84;100.00
34213;BME280;20477;51.390;8.102;2023-08-30T03:40:34;45800.28;;;-145.84;100.00
34213;BME280;20477;51.390;8.102;2023-08-30T03:43:03;45941.69;;;-145.84;100.00
34213;BME280;20477;51.390;8.102;2023-08-30T03:45:35;45762.97;;;-145.84;100.00
34213;BME280;20477;51.390;8.102;2023-08-30T03:48:05;45706.00;;;-145.84;100.00
34213;BME280;20477;51.390;8.102;2023-08-30T03:50:35;45841.53;;;-145.84;100.00
34213;BME280;20477;51.390;8.102;2023-08-30T03:53:04;45949.56;;;-145.84;100.00
34213;BME280;20477;51.390;8.102;2023-08-30T03:55:32;45863.13;;;-145.84;100.00
34213;BME280;20477;51.390;8.102;2023-08-30T03:58:01;46014.38;;;-145.84;100.00
34213;BME280;20477;51.390;8.102;2023-08-30T04:00:31;45863.13;;;-145.84;100.00
34213;BME280;20477;51.390;8.102;2023-08-30T04:02:59;45892.59;;;-145.84;100.00
34213;BME280;20477;51.390;8.102;2023-08-30T04:05:32;46059.53;;;-145.84;100.00
34213;BME280;20477;51.390;8.102;2023-08-30T04:08:04;45965.25;;;-145.84;100.00
34213;BME280;20477;51.390;8.102;2023-08-30T04:10:35;46059.53;;;-145.84;100.00
34213;BME280;20477;51.390;8.102;2023-08-30T04:13:04;46108.66;;;-145.84;100.00
34213;BME280;20477;51.390;8.102;2023-08-30T04:15:33;46004.53;;;-145.84;100.00
34213;BME280;20477;51.390;8.102;2023-08-30T04:18:03;45925.97;;;-145.84;100.00
34213;BME280;20477;51.390;8.102;2023-08-30T04:20:32;46130.25;;;-145.84;100.00
34213;BME280;20477;51.390;8.102;2023-08-30T04:23:02;45794.38;;;-145.84;100.00
34213;BME280;20477;51.390;8.102;2023-08-30T04:25:32;45847.41;;;-145.84;100.00
34213;BME280;20477;51.390;8.102;2023-08-30T04:28:02;46032.03;;;-145.84;100.00
34213;BME280;20477;51.390;8.102;2023-08-30T04:30:30;45927.94;;;-145.84;100.00
34213;BME280;20477;51.390;8.102;2023-08-30T04:32:59;45959.38;;;-145.84;100.00
34213;BME280;20477;51.390;8.102;2023-08-30T04:35:30;45937.75;;;-145.84;100.00
34213;BME280;20477;51.390;8.102;2023-08-30T04:37:58;46112.56;;;-145.84;100.00
34213;BME280;20477;51.390;8.102;2023-08-30T04:40:28;46130.25;;;-145.84;100.00
34213;BME280;20477;51.390;8.102;2023-08-30T04:42:58;45971.16;;;-145.84;100.00
34213;BME280;20477;51.390;8.102;2023-08-30T04:45:27;45914.19;;;-145.84;100.00
34213;BME280;20477;51.390;8.102;2023-08-30T04:47:56;46063.47;;;-145.84;100.00
34213;BME280;20477;51.390;8.102;2023-08-30T04:50:25;46051.69;;;-145.84;100.00
34213;BME280;20477;51.390;8.102;2023-08-30T04:52:53;45812.06;;;-145.84;100.00
34213;BME280;20477;51.390;8.102;2023-08-30T04:55:24;45955.44;;;-145.84;100.00
34213;BME280;20477;51.390;8.102;2023-08-30T04:57:54;45894.56;;;-145.84;100.00
34213;BME280;20477;51.390;8.102;2023-08-30T05:00:22;45876.88;;;-145.84;100.00
34213;BME280;20477;51.390;8.102;2023-08-30T05:02:51;46010.44;;;-145.84;100.00
34213;BME280;20477;51.390;8.102;2023-08-30T05:05:20;45845.47;;;-145.84;100.00
34213;BME280;20477;51.390;8.102;2023-08-30T05:07:48;46079.19;;;-145.84;100.00
34213;BME280;20477;51.390;8.102;2023-08-30T05:10:17;45924.00;;;-145.84;100.00
34213;BME280;20477;51.390;8.102;2023-08-30T05:12:45;46081.16;;;-145.84;100.00
34213;BME280;20477;51.390;8.102;2023-08-30T05:15:20;46071.31;;;-145.84;100.00
34213;BME280;20477;51.390;8.102;2023-08-30T05:17:48;45980.97;;;-145.84;100.00
34213;BME280;20477;51.390;8.102;2023-08-30T05:20:17;46055.59;;;-145.84;100.00
34213;BME280;20477;51.390;8.102;2023-08-30T05:22:45;45867.06;;;-145.84;100.00
34213;BME280;20477;51.390;8.102;2023-08-30T05:25:14;45912.22;;;-145.84;100.00
34213;BME280;20477;51.390;8.102;2023-08-30T05:27:42;45933.84;;;-145.84;100.00
34213;BME280;20477;51.390;8.102;2023-08-30T05:30:15;46008.47;;;-145.84;100.00
34213;BME280;20477;51.390;8.102;2023-08-30T05:32:45;46010.44;;;-145.84;100.00
34213;BME280;20477;51.390;8.102;2023-08-30T05:35:13;45874.91;;;-145.84;100.00
34213;BME280;20477;51.390;8.102;2023-08-30T05:37:42;45922.06;;;-145.84;100.00
34213;BME280;20477;51.390;8.102;2023-08-30T05:40:13;45845.47;;;-145.84;100.00
34213;BME280;20477;51.390;8.102;2023-08-30T05:42:44;45831.72;;;-145.84;100.00
34213;BME280;20477;51.390;8.102;2023-08-30T05:45:13;45662.81;;;-145.84;100.00
34213;BME280;20477;51.390;8.102;2023-08-30T05:47:41;45238.63;;;-145.84;100.00
34213;BME280;20477;51.390;8.102;2023-08-30T05:50:11;44834.13;;;-145.84;100.00
34213;BME280;20477;51.390;8.102;2023-08-30T05:52:39;44610.28;;;-145.84;100.00
34213;BME280;20477;51.390;8.102;2023-08-30T05:55:09;44529.78;;;-145.84;100.00
34213;BME280;20477;51.390;8.102;2023-08-30T05:57:37;44594.56;;;-145.84;100.00
34213;BME280;20477;51.390;8.102;2023-08-30T06:00:07;44427.69;;;-145.84;100.00
34213;BME280;20477;51.390;8.102;2023-08-30T06:02:36;44366.81;;;-145.84;100.00
34213;BME280;20477;51.390;8.102;2023-08-30T06:05:05;44398.22;;;-145.84;100.00
34213;BME280;20477;51.390;8.102;2023-08-30T06:07:35;44368.78;;;-145.84;100.00
34213;BME280;20477;51.390;8.102;2023-08-30T06:10:05;44341.31;;;-145.84;100.00
34213;BME280;20477;51.390;8.102;2023-08-30T06:12:34;44337.38;;;-145.84;100.00
34213;BME280;20477;51.390;8.102;2023-08-30T06:15:03;44311.84;;;-145.84;100.00
34213;BME280;20477;51.390;8.102;2023-08-30T06:17:31;44315.78;;;-145.84;100.00
34213;BME280;20477;51.390;8.102;2023-08-30T06:20:00;44272.59;;;-145.84;100.00
34213;BME280;20477;51.390;8.102;2023-08-30T06:22:30;44292.22;;;-145.84;100.00
34213;BME280;20477;51.390;8.102;2023-08-30T06:25:00;44288.28;;;-145.84;100.00
34213;BME280;20477;51.390;8.102;2023-08-30T06:27:28;44229.41;;;-145.84;100.00
34213;BME280;20477;51.390;8.102;2023-08-30T06:29:56;44329.53;;;-145.84;100.00
34213;BME280;20477;51.390;8.102;2023-08-30T06:32:26;44268.66;;;-145.84;100.00
34213;BME280;20477;51.390;8.102;2023-08-30T06:34:55;44237.25;;;-145.84;100.00
34213;BME280;20477;51.390;8.102;2023-08-30T06:37:23;44215.66;;;-145.84;100.00
34213;BME280;20477;51.390;8.102;2023-08-30T06:39:51;44205.84;;;-145.84;100.00
34213;BME280;20477;51.390;8.102;2023-08-30T06:42:24;44182.28;;;-145.84;100.00
34213;BME280;20477;51.390;8.102;2023-08-30T06:44:52;44296.16;;;-145.84;100.00
34213;BME280;20477;51.390;8.102;2023-08-30T06:47:21;44506.22;;;-145.84;100.00
34213;BME280;20477;51.390;8.102;2023-08-30T06:49:49;44374.69;;;-145.84;100.00
34213;BME280;20477;51.390;8.102;2023-08-30T06:52:17;44386.47;;;-145.84;100.00
34213;BME280;20477;51.390;8.102;2023-08-30T06:54:46;44311.84;;;-145.84;100.00
34213;BME280;20477;51.390;8.102;2023-08-30T06:57:14;44131.25;;;-145.84;100.00
34213;BME280;20477;51.390;8.102;2023-08-30T06:59:44;44137.13;;;-145.84;100.00
34213;BME280;20477;51.390;8.102;2023-08-30T07:02:12;44190.13;;;-145.84;100.00
34213;BME280;20477;51.390;8.102;2023-08-30T07:04:41;44315.78;;;-145.84;100.00
34213;BME280;20477;51.390;8.102;2023-08-30T07:07:09;44282.41;;;-145.84;100.00
34213;BME280;20477;51.390;8.102;2023-08-30T07:09:40;44402.16;;;-145.84;100.00
34213;BME280;20477;51.390;8.102;2023-08-30T07:12:08;44474.81;;;-145.84;100.00
34213;BME280;20477;51.390;8.102;2023-08-30T07:14:37;44413.94;;;-145.84;100.00
34213;BME280;20477;51.390;8.102;2023-08-30T07:17:07;44551.38;;;-145.84;100.00
34213;BME280;20477;51.390;8.102;2023-08-30T07:19:35;44533.72;;;-145.84;100.00
34213;BME280;20477;51.390;8.102;2023-08-30T07:22:04;44484.63;;;-145.84;100.00
34213;BME280;20477;51.390;8.102;2023-08-30T07:24:32;44531.75;;;-145.84;100.00
34213;BME280;20477;51.390;8.102;2023-08-30T07:27:01;44476.78;;;-145.84;100.00
34213;BME280;20477;51.390;8.102;2023-08-30T07:29:29;44594.56;;;-145.84;100.00
34213;BME280;20477;51.390;8.102;2023-08-30T07:31:57;44476.78;;;-145.84;100.00
34213;BME280;20477;51.390;8.102;2023-08-30T07:34:27;44576.91;;;-145.84;100.00
34213;BME280;20477;51.390;8.102;2023-08-30T07:36:56;44637.75;;;-145.84;100.00
34213;BME280;20477;51.390;8.102;2023-08-30T07:39:24;44724.16;;;-145.84;100.00
34213;BME280;20477;51.390;8.102;2023-08-30T07:41:53;44551.38;;;-145.84;100.00
34213;BME280;20477;51.390;8.102;2023-08-30T07:44:22;44631.88;;;-145.84;100.00
34213;BME280;20477;51.390;8.102;2023-08-30T07:46:50;44514.06;;;-145.84;100.00
34213;BME280;20477;51.390;8.102;2023-08-30T07:49:18;44580.81;;;-145.84;100.00
34213;BME280;20477;51.390;8.102;2023-08-30T07:51:48;44557.25;;;-145.84;100.00
34213;BME280;20477;51.390;8.102;2023-08-30T07:54:16;44651.50;;;-145.84;100.00
34213;BME280;20477;51.390;8.102;2023-08-30T07:56:45;44684.88;;;-145.84;100.00
34213;BME280;20477;51.390;8.102;2023-08-30T07:59:13;44696.66;;;-145.84;100.00
34213;BME280;20477;51.390;8.102;2023-08-30T08:01:42;44700.59;;;-145.84;100.00
34213;BME280;20477;51.390;8.102;2023-08-30T08:04:10;44830.19;;;-145.84;100.00
34213;BME280;20477;51.390;8.102;2023-08-30T08:06:38;44771.28;;;-145.84;100.00
34213;BME280;20477;51.390;8.102;2023-08-30T08:09:08;44771.28;;;-145.84;100.00
34213;BME280;20477;51.390;8.102;2023-08-30T08:11:37;44818.41;;;-145.84;98.57
34213;BME280;20477;51.390;8.102;2023-08-30T08:14:06;44834.13;;;-145.84;100.00
34213;BME280;20477;51.390;8.102;2023-08-30T08:16:35;44761.47;;;-145.84;100.00
34213;BME280;20477;51.390;8.102;2023-08-30T08:19:04;44814.47;;;-145.84;94.87
34213;BME280;20477;51.390;8.102;2023-08-30T08:21:33;44718.25;;;-145.84;99.00
34213;BME280;20477;51.390;8.102;2023-08-30T08:24:02;44700.59;;;-145.84;89.28
34213;BME280;20477;51.390;8.102;2023-08-30T08:26:32;44690.78;;;-145.84;89.12
34213;BME280;20477;51.390;8.102;2023-08-30T08:29:00;44555.31;;;-145.84;94.41
34213;BME280;20477;51.390;8.102;2023-08-30T08:31:29;44783.06;;;-145.84;84.05
34213;BME280;20477;51.390;8.102;2023-08-30T08:34:09;44692.75;;;-145.84;86.84
34213;BME280;20477;51.390;8.102;2023-08-30T08:36:40;44757.53;;;-145.84;79.51
34213;BME280;20477;51.390;8.102;2023-08-30T08:39:09;44563.16;;;-145.84;73.79
34213;BME280;20477;51.390;8.102;2023-08-30T08:41:41;44686.84;;;-145.84;74.47
34213;BME280;20477;51.390;8.102;2023-08-30T08:44:10;44645.63;;;-145.84;70.76
34213;BME280;20477;51.390;8.102;2023-08-30T08:46:41;44576.91;;;-145.84;67.22
34213;BME280;20477;51.390;8.102;2023-08-30T08:49:13;44639.72;;;-145.84;63.38
34213;BME280;20477;51.390;8.102;2023-08-30T08:51:42;44578.88;;;-145.84;62.12
34213;BME280;20477;51.390;8.102;2023-08-30T08:54:12;44545.50;;;-145.84;61.14
34213;BME280;20477;51.390;8.102;2023-08-30T08:56:42;44533.72;;;-145.84;66.10
34213;BME280;20477;51.390;8.102;2023-08-30T08:59:11;44472.84;;;-145.84;63.97
34213;BME280;20477;51.390;8.102;2023-08-30T09:01:40;44518.00;;;-145.84;63.66
34213;BME280;20477;51.390;8.102;2023-08-30T09:04:10;44531.75;;;-145.84;61.47
34213;BME280;20477;51.390;8.102;2023-08-30T09:06:39;44576.91;;;-145.84;60.36
34213;BME280;20477;51.390;8.102;2023-08-30T09:09:08;44700.59;;;-145.84;58.90
34213;BME280;20477;51.390;8.102;2023-08-30T09:11:37;44404.13;;;-145.84;62.52
34213;BME280;20477;51.390;8.102;2023-08-30T09:14:19;44539.59;;;-145.84;56.81
34213;BME280;20477;51.390;8.102;2023-08-30T09:16:57;44557.25;;;-145.84;61.41
34213;BME280;20477;51.390;8.102;2023-08-30T09:19:28;44406.09;;;-145.84;57.04
34213;BME280;20477;51.390;8.102;2023-08-30T09:21:58;44627.94;;;-145.84;54.77
34213;BME280;20477;51.390;8.102;2023-08-30T09:24:37;45191.50;;;-145.84;53.86
34213;BME280;20477;51.390;8.102;2023-08-30T09:27:07;44445.34;;;-145.84;55.10
34213;BME280;20477;51.390;8.102;2023-08-30T09:29:36;44567.09;;;-145.84;57.01
34213;BME280;20477;51.390;8.102;2023-08-30T09:32:08;44586.72;;;-145.84;53.82
34213;BME280;20477;51.390;8.102;2023-08-30T09:34:44;44502.28;;;-145.84;54.18
34213;BME280;20477;51.390;8.102;2023-08-30T09:37:20;44476.78;;;-145.84;51.79
34213;BME280;20477;51.390;8.102;2023-08-30T09:39:49;44437.50;;;-145.84;49.78
34213;BME280;20477;51.390;8.102;2023-08-30T09:42:18;44358.97;;;-145.84;53.34
34213;BME280;20477;51.390;8.102;2023-08-30T09:44:48;44706.50;;;-145.84;51.59
34213;BME280;20477;51.390;8.102;2023-08-30T09:47:17;44508.19;;;-145.84;51.32
34213;BME280;20477;51.390;8.102;2023-08-30T09:49:46;44457.13;;;-145.84;49.23
34213;BME280;20477;51.390;8.102;2023-08-30T09:52:15;44539.59;;;-145.84;51.03
34213;BME280;20477;51.390;8.102;2023-08-30T09:54:45;44612.25;;;-145.84;49.77
34213;BME280;20477;51.390;8.102;2023-08-30T09:57:15;44783.06;;;-145.84;51.48
34213;BME280;20477;51.390;8.102;2023-08-30T09:59:45;44518.00;;;-145.84;55.59
34213;BME280;20477;51.390;8.102;2023-08-30T10:02:15;44922.47;;;-145.84;50.97
34213;BME280;20477;51.390;8.102;2023-08-30T10:04:45;44908.72;;;-145.84;53.59
34213;BME280;20477;51.390;8.102;2023-08-30T10:07:15;44712.38;;;-145.84;58.06
34213;BME280;20477;51.390;8.102;2023-08-30T10:09:44;44857.69;;;-145.84;55.51
34213;BME280;20477;51.390;8.102;2023-08-30T10:12:32;44702.56;;;-145.84;54.23
34213;BME280;20477;51.390;8.102;2023-08-30T10:15:01;44787.00;;;-145.84;54.01
34213;BME280;20477;51.390;8.102;2023-08-30T10:17:33;44790.91;;;-145.84;54.52
34213;BME280;20477;51.390;8.102;2023-08-30T10:20:05;44773.25;;;-145.84;51.40
34213;BME280;20477;51.390;8.102;2023-08-30T10:22:36;44624.03;;;-145.84;52.89
34213;BME280;20477;51.390;8.102;2023-08-30T10:25:10;44518.00;;;-145.84;55.64
34213;BME280;20477;51.390;8.102;2023-08-30T10:27:45;44588.69;;;-145.84;52.58
34213;BME280;20477;51.390;8.102;2023-08-30T10:30:15;44372.72;;;-145.84;51.41
34213;BME280;20477;51.390;8.102;2023-08-30T10:32:46;44459.09;;;-145.84;49.23
34213;BME280;20477;51.390;8.102;2023-08-30T10:35:17;44494.44;;;-145.84;49.26
34213;BME280;20477;51.390;8.102;2023-08-30T10:37:54;44396.28;;;-145.84;51.23
34213;BME280;20477;51.390;8.102;2023-08-30T10:40:23;44502.28;;;-145.84;49.65
34213;BME280;20477;51.390;8.102;2023-08-30T10:43:02;44455.16;;;-145.84;50.59
34213;BME280;20477;51.390;8.102;2023-08-30T10:45:31;44357.00;;;-145.84;48.88
34213;BME280;20477;51.390;8.102;2023-08-30T10:48:01;44268.66;;;-145.84;49.07
34213;BME280;20477;51.390;8.102;2023-08-30T10:50:33;44506.22;;;-145.84;48.25
34213;BME280;20477;51.390;8.102;2023-08-30T10:53:01;44380.56;;;-145.84;48.99
34213;BME280;20477;51.390;8.102;2023-08-30T10:55:33;44486.59;;;-145.84;46.48
34213;BME280;20477;51.390;8.102;2023-08-30T10:58:03;44523.88;;;-145.84;46.11
34213;BME280;20477;51.390;8.102;2023-08-30T11:00:32;44565.13;;;-145.84;45.79
34213;BME280;20477;51.390;8.102;2023-08-30T11:03:04;44508.19;;;-145.84;45.84
34213;BME280;20477;51.390;8.102;2023-08-30T11:05:41;44478.72;;;-145.84;45.52
34213;BME280;20477;51.390;8.102;2023-08-30T11:08:11;44457.13;;;-145.84;46.23
34213;BME280;20477;51.390;8.102;2023-08-30T11:10:40;44439.47;;;-145.84;45.66
34213;BME280;20477;51.390;8.102;2023-08-30T11:13:10;44461.06;;;-145.84;45.61
34213;BME280;20477;51.390;8.102;2023-08-30T11:15:38;44592.59;;;-145.84;44.08
34213;BME280;20477;51.390;8.102;2023-08-30T11:18:08;44574.94;;;-145.84;47.21
34213;BME280;20477;51.390;8.102;2023-08-30T11:20:36;44669.19;;;-145.84;45.96
34213;BME280;20477;51.390;8.102;2023-08-30T11:23:05;44398.22;;;-145.84;46.26
34213;BME280;20477;51.390;8.102;2023-08-30T11:25:34;44553.34;;;-145.84;45.90
34213;BME280;20477;51.390;8.102;2023-08-30T11:28:03;44413.94;;;-145.84;47.24
34213;BME280;20477;51.390;8.102;2023-08-30T11:30:32;44541.56;;;-145.84;47.47
34213;BME280;20477;51.390;8.102;2023-08-30T11:33:00;44472.84;;;-145.84;45.67
34213;BME280;20477;51.390;8.102;2023-08-30T11:35:32;44604.38;;;-145.84;46.57
34213;BME280;20477;51.390;8.102;2023-08-30T11:38:00;44559.22;;;-145.84;45.24
34213;BME280;20477;51.390;8.102;2023-08-30T11:40:29;44610.28;;;-145.84;46.16
34213;BME280;20477;51.390;8.102;2023-08-30T11:43:01;44618.13;;;-145.84;48.21
34213;BME280;20477;51.390;8.102;2023-08-30T11:45:32;44592.59;;;-145.84;51.37
34213;BME280;20477;51.390;8.102;2023-08-30T11:48:02;44679.00;;;-145.84;51.98
34213;BME280;20477;51.390;8.102;2023-08-30T11:50:32;44790.91;;;-145.84;53.88
34213;BME280;20477;51.390;8.102;2023-08-30T11:53:14;44879.28;;;-145.84;51.61
34213;BME280;20477;51.390;8.102;2023-08-30T11:55:43;45132.59;;;-145.84;51.52
34213;BME280;20477;51.390;8.102;2023-08-30T11:58:11;44891.06;;;-145.84;52.45
34213;BME280;20477;51.390;8.102;2023-08-30T12:00:39;45034.41;;;-145.84;53.99
34213;BME280;20477;51.390;8.102;2023-08-30T12:03:08;44718.25;;;-145.84;54.21
34213;BME280;20477;51.390;8.102;2023-08-30T12:05:46;44973.53;;;-145.84;52.00
34213;BME280;20477;51.390;8.102;2023-08-30T12:08:25;44849.81;;;-145.84;55.38
34213;BME280;20477;51.390;8.102;2023-08-30T12:10:54;45238.63;;;-145.84;54.95
34213;BME280;20477;51.390;8.102;2023-08-30T12:13:24;45301.47;;;-145.84;54.76
34213;BME280;20477;51.390;8.102;2023-08-30T12:15:53;44792.88;;;-145.84;56.91
34213;BME280;20477;51.390;8.102;2023-08-30T12:18:22;44755.56;;;-145.84;52.74
34213;BME280;20477;51.390;8.102;2023-08-30T12:20:55;44889.09;;;-145.84;51.61
34213;BME280;20477;51.390;8.102;2023-08-30T12:23:24;44830.19;;;-145.84;54.83
34213;BME280;20477;51.390;8.102;2023-08-30T12:26:03;44967.63;;;-145.84;55.89
34213;BME280;20477;51.390;8.102;2023-08-30T12:28:34;45164.00;;;-145.84;54.16
34213;BME280;20477;51.390;8.102;2023-08-30T12:31:04;45199.34;;;-145.84;54.70
34213;BME280;20477;51.390;8.102;2023-08-30T12:33:33;44798.78;;;-145.84;60.64
34213;BME280;20477;51.390;8.102;2023-08-30T12:36:04;44773.25;;;-145.84;62.99
34213;BME280;20477;51.390;8.102;2023-08-30T12:38:32;44712.38;;;-145.84;61.96
34213;BME280;20477;51.390;8.102;2023-08-30T12:41:01;44598.50;;;-145.84;60.50
34213;BME280;20477;51.390;8.102;2023-08-30T12:43:29;44582.78;;;-145.84;58.82
34213;BME280;20477;51.390;8.102;2023-08-30T12:45:58;44508.19;;;-145.84;63.50